This is the latest recevied weather packets stored in our database for station/object 5B4APJ-13. If no packets are shown the sender has not sent any weather packets the latest 10 day(s).
| Time | Temp. | Humidity | Pressure | Rain* | Wind** | Luminosity | Snow |
|---|---|---|---|---|---|---|---|
| 1777740126 | 17.78° C | 65% | 1010.2 hPa | 0 mm | 0.45 m/s, 316° | 0 W/m² | - |
| 1777739826 | 17.78° C | 65% | 1010.5 hPa | 0 mm | 0.89 m/s, 314° | 1 W/m² | - |
| 1777739526 | 18.33° C | 64% | 1010.6 hPa | 0 mm | 0.45 m/s, 317° | 1 W/m² | - |
| 1777739226 | 18.33° C | 66% | 1010.5 hPa | 0 mm | 0.45 m/s, 316° | 2 W/m² | - |
| 1777738926 | 18.33° C | 66% | 1010.4 hPa | 0 mm | 0.89 m/s, 351° | 3 W/m² | - |
| 1777738626 | 17.78° C | 67% | 1010.3 hPa | 0 mm | 0 m/s | 4 W/m² | - |
| 1777738326 | 17.78° C | 67% | 1010.3 hPa | 0 mm | 0 m/s | 6 W/m² | - |
| 1777738026 | 18.33° C | 68% | 1010.6 hPa | 0 mm | 0 m/s | 8 W/m² | - |
| 1777737726 | 18.33° C | 69% | 1010.4 hPa | 0 mm | 0.45 m/s, 91° | 11 W/m² | - |
| 1777737426 | 18.33° C | 68% | 1010.8 hPa | 0 mm | 0.45 m/s, 90° | 15 W/m² | - |
| 1777737127 | 18.33° C | 66% | 1010.5 hPa | 0 mm | 0 m/s | 20 W/m² | - |
| 1777736826 | 18.33° C | 68% | 1010.6 hPa | 0 mm | 0.45 m/s, 90° | 28 W/m² | - |
| 1777736527 | 18.33° C | 67% | 1010.7 hPa | 0 mm | 0.45 m/s, 90° | 30 W/m² | - |
| 1777736227 | 18.33° C | 68% | 1010.7 hPa | 0 mm | 0.45 m/s, 90° | 31 W/m² | - |
| 1777735926 | 18.33° C | 68% | 1010.8 hPa | 0 mm | 0.45 m/s, 90° | 35 W/m² | - |
| 1777735627 | 18.33° C | 69% | 1010.6 hPa | 0 mm | 0.45 m/s, 91° | 41 W/m² | - |
| 1777735326 | 18.33° C | 68% | 1010.8 hPa | 0 mm | 0.45 m/s, 84° | 48 W/m² | - |
| 1777735027 | 18.33° C | 68% | 1010.5 hPa | 0 mm | 0.89 m/s, 78° | 37 W/m² | - |
| 1777734726 | 18.89° C | 67% | 1010.7 hPa | 0 mm | 0 m/s | 39 W/m² | - |
| 1777734427 | 18.89° C | 66% | 1011 hPa | 0 mm | 0.89 m/s, 64° | 39 W/m² | - |
| 1777734126 | 18.89° C | 65% | 1011 hPa | 0 mm | 0.45 m/s, 258° | 35 W/m² | - |
| 1777733826 | 18.89° C | 62% | 1011.1 hPa | 0 mm | 0 m/s | 43 W/m² | - |
| 1777733526 | 18.89° C | 62% | 1011.2 hPa | 0 mm | 0.45 m/s, 258° | 51 W/m² | - |
| 1777733226 | 18.89° C | 61% | 1011.2 hPa | 0 mm | 0.89 m/s, 260° | 47 W/m² | - |
| 1777732926 | 19.44° C | 60% | 1011.2 hPa | 0 mm | 0.89 m/s, 257° | 49 W/m² | - |
* Rain latest hour (hover to see other rain measurements)
** Current wind speed in m/s (hover to see current wind gust speed)